sensor_id;sensor_type;location;lat;lon;timestamp;pressure;altitude;pressure_sealevel;temperature;humidity
4972;BME280;2501;51.214;6.768;2023-05-20T00:00:09;101923.31;;;13.76;58.37
4972;BME280;2501;51.214;6.768;2023-05-20T00:02:38;101919.63;;;13.62;58.80
4972;BME280;2501;51.214;6.768;2023-05-20T00:05:07;101927.41;;;13.53;59.29
4972;BME280;2501;51.214;6.768;2023-05-20T00:07:35;101924.00;;;13.60;59.17
4972;BME280;2501;51.214;6.768;2023-05-20T00:10:05;101922.13;;;13.53;59.60
4972;BME280;2501;51.214;6.768;2023-05-20T00:12:33;101917.78;;;13.56;59.42
4972;BME280;2501;51.214;6.768;2023-05-20T00:15:06;101917.72;;;13.49;59.71
4972;BME280;2501;51.214;6.768;2023-05-20T00:17:36;101916.06;;;13.58;59.85
4972;BME280;2501;51.214;6.768;2023-05-20T00:20:06;101928.97;;;13.37;60.43
4972;BME280;2501;51.214;6.768;2023-05-20T00:22:35;101929.81;;;13.36;60.93
4972;BME280;2501;51.214;6.768;2023-05-20T00:25:04;101935.97;;;13.35;60.66
4972;BME280;2501;51.214;6.768;2023-05-20T00:27:33;101936.00;;;13.38;61.19
4972;BME280;2501;51.214;6.768;2023-05-20T00:30:05;101935.97;;;13.35;61.99
4972;BME280;2501;51.214;6.768;2023-05-20T00:32:33;101935.97;;;13.35;61.09
4972;BME280;2501;51.214;6.768;2023-05-20T00:35:03;101937.72;;;13.35;61.18
4972;BME280;2501;51.214;6.768;2023-05-20T00:37:31;101944.88;;;13.45;60.81
4972;BME280;2501;51.214;6.768;2023-05-20T00:40:00;101941.31;;;13.40;60.71
4972;BME280;2501;51.214;6.768;2023-05-20T00:42:29;101940.28;;;13.29;64.21
4972;BME280;2501;51.214;6.768;2023-05-20T00:44:59;101933.66;;;12.99;65.72
4972;BME280;2501;51.214;6.768;2023-05-20T00:47:32;101922.34;;;13.05;65.08
4972;BME280;2501;51.214;6.768;2023-05-20T00:50:02;101929.41;;;13.07;63.85
4972;BME280;2501;51.214;6.768;2023-05-20T00:52:31;101933.00;;;13.12;63.52
4972;BME280;2501;51.214;6.768;2023-05-20T00:55:02;101941.50;;;12.95;63.42
4972;BME280;2501;51.214;6.768;2023-05-20T00:57:32;101935.31;;;12.91;63.59
4972;BME280;2501;51.214;6.768;2023-05-20T01:00:01;101935.47;;;13.03;62.71
4972;BME280;2501;51.214;6.768;2023-05-20T01:02:32;101938.81;;;12.90;62.82
4972;BME280;2501;51.214;6.768;2023-05-20T01:05:00;101935.16;;;12.82;63.22
4972;BME280;2501;51.214;6.768;2023-05-20T01:07:29;101936.25;;;12.95;63.15
4972;BME280;2501;51.214;6.768;2023-05-20T01:09:58;101930.81;;;12.84;63.29
4972;BME280;2501;51.214;6.768;2023-05-20T01:12:32;101929.00;;;12.80;63.36
4972;BME280;2501;51.214;6.768;2023-05-20T01:15:06;101936.94;;;12.83;63.21
4972;BME280;2501;51.214;6.768;2023-05-20T01:17:40;101923.50;;;12.66;63.41
4972;BME280;2501;51.214;6.768;2023-05-20T01:20:12;101930.69;;;12.75;63.36
4972;BME280;2501;51.214;6.768;2023-05-20T01:22:49;101923.72;;;12.78;63.46
4972;BME280;2501;51.214;6.768;2023-05-20T01:25:20;101926.38;;;12.80;63.08
4972;BME280;2501;51.214;6.768;2023-05-20T01:27:49;101924.56;;;12.77;63.49
4972;BME280;2501;51.214;6.768;2023-05-20T01:30:19;101918.38;;;12.74;63.44
4972;BME280;2501;51.214;6.768;2023-05-20T01:32:49;101928.59;;;12.55;63.83
4972;BME280;2501;51.214;6.768;2023-05-20T01:35:21;101926.09;;;12.62;64.02
4972;BME280;2501;51.214;6.768;2023-05-20T01:38:00;101920.78;;;12.60;64.19
4972;BME280;2501;51.214;6.768;2023-05-20T01:40:32;101911.13;;;12.59;64.33
4972;BME280;2501;51.214;6.768;2023-05-20T01:43:01;101912.69;;;12.48;64.39
4972;BME280;2501;51.214;6.768;2023-05-20T01:45:34;101920.63;;;12.51;64.64
4972;BME280;2501;51.214;6.768;2023-05-20T01:48:03;101913.56;;;12.48;64.51
4972;BME280;2501;51.214;6.768;2023-05-20T01:50:34;101913.56;;;12.48;64.36
4972;BME280;2501;51.214;6.768;2023-05-20T01:53:05;101917.06;;;12.47;64.67
4972;BME280;2501;51.214;6.768;2023-05-20T01:55:34;101912.34;;;12.27;65.29
4972;BME280;2501;51.214;6.768;2023-05-20T01:58:02;101915.03;;;12.31;65.36
4972;BME280;2501;51.214;6.768;2023-05-20T02:00:32;101909.72;;;12.28;65.64
4972;BME280;2501;51.214;6.768;2023-05-20T02:03:00;101903.63;;;12.29;65.69
4972;BME280;2501;51.214;6.768;2023-05-20T02:05:29;101907.84;;;12.21;65.93
4972;BME280;2501;51.214;6.768;2023-05-20T02:07:58;101905.78;;;12.03;66.61
4972;BME280;2501;51.214;6.768;2023-05-20T02:10:29;101910.09;;;12.01;66.90
4972;BME280;2501;51.214;6.768;2023-05-20T02:12:57;101910.16;;;12.03;66.96
4972;BME280;2501;51.214;6.768;2023-05-20T02:15:26;101910.84;;;11.93;67.50
4972;BME280;2501;51.214;6.768;2023-05-20T02:17:54;101911.75;;;11.96;67.74
4972;BME280;2501;51.214;6.768;2023-05-20T02:20:23;101906.50;;;11.95;68.07
4972;BME280;2501;51.214;6.768;2023-05-20T02:22:51;101909.00;;;11.89;68.32
4972;BME280;2501;51.214;6.768;2023-05-20T02:25:19;101905.53;;;11.90;68.56
4972;BME280;2501;51.214;6.768;2023-05-20T02:27:50;101903.59;;;11.81;68.61
4972;BME280;2501;51.214;6.768;2023-05-20T02:30:19;101907.03;;;11.78;69.09
4972;BME280;2501;51.214;6.768;2023-05-20T02:32:47;101907.75;;;11.71;69.08
4972;BME280;2501;51.214;6.768;2023-05-20T02:35:16;101908.59;;;11.69;69.32
4972;BME280;2501;51.214;6.768;2023-05-20T02:37:44;101905.16;;;11.73;69.52
4972;BME280;2501;51.214;6.768;2023-05-20T02:40:13;101904.31;;;11.74;69.44
4972;BME280;2501;51.214;6.768;2023-05-20T02:42:41;101902.66;;;11.77;69.45
4972;BME280;2501;51.214;6.768;2023-05-20T02:45:12;101898.03;;;11.67;69.78
4972;BME280;2501;51.214;6.768;2023-05-20T02:47:41;101897.88;;;11.58;69.85
4972;BME280;2501;51.214;6.768;2023-05-20T02:50:09;101899.59;;;11.56;70.21
4972;BME280;2501;51.214;6.768;2023-05-20T02:52:38;101903.91;;;11.54;70.10
4972;BME280;2501;51.214;6.768;2023-05-20T02:55:07;101895.03;;;11.49;70.47
4972;BME280;2501;51.214;6.768;2023-05-20T02:57:36;101891.69;;;11.56;70.22
4972;BME280;2501;51.214;6.768;2023-05-20T03:00:06;101887.19;;;11.50;70.54
4972;BME280;2501;51.214;6.768;2023-05-20T03:02:38;101885.38;;;11.48;70.66
4972;BME280;2501;51.214;6.768;2023-05-20T03:05:07;101881.97;;;11.52;70.50
4972;BME280;2501;51.214;6.768;2023-05-20T03:07:36;101887.25;;;11.54;70.42
4972;BME280;2501;51.214;6.768;2023-05-20T03:10:06;101891.78;;;11.62;70.18
4972;BME280;2501;51.214;6.768;2023-05-20T03:12:35;101879.31;;;11.50;70.40
4972;BME280;2501;51.214;6.768;2023-05-20T03:15:04;101890.00;;;11.58;70.19
4972;BME280;2501;51.214;6.768;2023-05-20T03:17:33;101882.03;;;11.55;70.84
4972;BME280;2501;51.214;6.768;2023-05-20T03:20:05;101880.03;;;11.43;71.33
4972;BME280;2501;51.214;6.768;2023-05-20T03:22:35;101888.03;;;11.49;71.90
4972;BME280;2501;51.214;6.768;2023-05-20T03:25:04;101882.53;;;11.36;72.48
4972;BME280;2501;51.214;6.768;2023-05-20T03:27:34;101881.75;;;11.40;73.07
4972;BME280;2501;51.214;6.768;2023-05-20T03:30:02;101885.00;;;11.30;73.78
4972;BME280;2501;51.214;6.768;2023-05-20T03:32:31;101887.47;;;11.21;74.72
4972;BME280;2501;51.214;6.768;2023-05-20T03:34:59;101876.16;;;11.26;74.26
4972;BME280;2501;51.214;6.768;2023-05-20T03:37:30;101875.84;;;11.11;74.41
4972;BME280;2501;51.214;6.768;2023-05-20T03:39:59;101878.44;;;11.09;74.23
4972;BME280;2501;51.214;6.768;2023-05-20T03:42:30;101872.25;;;11.06;73.79
4972;BME280;2501;51.214;6.768;2023-05-20T03:44:58;101882.63;;;11.00;73.54
4972;BME280;2501;51.214;6.768;2023-05-20T03:47:27;101874.03;;;11.08;73.67
4972;BME280;2501;51.214;6.768;2023-05-20T03:49:55;101869.34;;;10.94;73.91
4972;BME280;2501;51.214;6.768;2023-05-20T03:52:24;101864.38;;;11.06;73.74
4972;BME280;2501;51.214;6.768;2023-05-20T03:54:55;101868.56;;;10.98;73.69
4972;BME280;2501;51.214;6.768;2023-05-20T03:57:24;101858.25;;;11.05;73.48
4972;BME280;2501;51.214;6.768;2023-05-20T03:59:53;101873.19;;;11.08;73.30
4972;BME280;2501;51.214;6.768;2023-05-20T04:02:22;101862.88;;;11.17;73.07
4972;BME280;2501;51.214;6.768;2023-05-20T04:04:50;101862.66;;;11.06;73.07
4972;BME280;2501;51.214;6.768;2023-05-20T04:07:22;101868.97;;;11.16;73.19
4972;BME280;2501;51.214;6.768;2023-05-20T04:09:50;101868.03;;;11.14;73.04
4972;BME280;2501;51.214;6.768;2023-05-20T04:12:21;101865.38;;;11.12;72.79
4972;BME280;2501;51.214;6.768;2023-05-20T04:14:55;101871.38;;;11.05;73.17
4972;BME280;2501;51.214;6.768;2023-05-20T04:17:25;101861.16;;;11.19;72.92
4972;BME280;2501;51.214;6.768;2023-05-20T04:19:54;101860.09;;;11.11;73.21
4972;BME280;2501;51.214;6.768;2023-05-20T04:22:24;101863.81;;;11.21;72.66
4972;BME280;2501;51.214;6.768;2023-05-20T04:24:52;101855.00;;;11.17;72.54
4972;BME280;2501;51.214;6.768;2023-05-20T04:27:23;101861.22;;;11.22;72.66
4972;BME280;2501;51.214;6.768;2023-05-20T04:29:53;101862.09;;;11.21;72.73
4972;BME280;2501;51.214;6.768;2023-05-20T04:32:23;101855.94;;;11.21;72.96
4972;BME280;2501;51.214;6.768;2023-05-20T04:34:52;101859.56;;;11.27;73.73
4972;BME280;2501;51.214;6.768;2023-05-20T04:37:21;101861.50;;;11.36;72.79
4972;BME280;2501;51.214;6.768;2023-05-20T04:39:50;101855.50;;;11.43;72.79
4972;BME280;2501;51.214;6.768;2023-05-20T04:42:19;101860.03;;;11.50;73.32
4972;BME280;2501;51.214;6.768;2023-05-20T04:44:51;101864.53;;;11.56;73.54
4972;BME280;2501;51.214;6.768;2023-05-20T04:47:19;101867.22;;;11.60;74.29
4972;BME280;2501;51.214;6.768;2023-05-20T04:49:48;101864.34;;;11.46;73.85
4972;BME280;2501;51.214;6.768;2023-05-20T04:52:17;101858.84;;;11.78;73.46
4972;BME280;2501;51.214;6.768;2023-05-20T04:54:45;101861.50;;;11.79;72.39
4972;BME280;2501;51.214;6.768;2023-05-20T04:57:15;101857.16;;;11.81;71.77
4972;BME280;2501;51.214;6.768;2023-05-20T04:59:45;101861.25;;;11.67;71.56
4972;BME280;2501;51.214;6.768;2023-05-20T05:02:16;101858.28;;;11.94;71.29
4972;BME280;2501;51.214;6.768;2023-05-20T05:04:45;101855.56;;;11.90;71.64
4972;BME280;2501;51.214;6.768;2023-05-20T05:07:13;101854.16;;;12.08;72.06
4972;BME280;2501;51.214;6.768;2023-05-20T05:09:42;101855.94;;;12.09;70.92
4972;BME280;2501;51.214;6.768;2023-05-20T05:12:10;101857.72;;;12.12;71.54
4972;BME280;2501;51.214;6.768;2023-05-20T05:14:38;101861.06;;;12.03;70.37
4972;BME280;2501;51.214;6.768;2023-05-20T05:17:07;101858.94;;;12.34;69.07
4972;BME280;2501;51.214;6.768;2023-05-20T05:19:38;101852.09;;;12.43;68.26
4972;BME280;2501;51.214;6.768;2023-05-20T05:22:06;101847.69;;;12.41;68.08
4972;BME280;2501;51.214;6.768;2023-05-20T05:24:35;101834.69;;;12.53;67.66
4972;BME280;2501;51.214;6.768;2023-05-20T05:27:04;101833.09;;;12.63;67.35
4972;BME280;2501;51.214;6.768;2023-05-20T05:29:32;101839.19;;;12.60;67.23
4972;BME280;2501;51.214;6.768;2023-05-20T05:32:01;101837.69;;;12.76;67.17
4972;BME280;2501;51.214;6.768;2023-05-20T05:34:29;101838.53;;;12.75;67.03
4972;BME280;2501;51.214;6.768;2023-05-20T05:37:00;101832.09;;;12.54;67.70
4972;BME280;2501;51.214;6.768;2023-05-20T05:39:28;101834.88;;;12.65;67.22
4972;BME280;2501;51.214;6.768;2023-05-20T05:41:57;101834.38;;;12.90;66.37
4972;BME280;2501;51.214;6.768;2023-05-20T05:44:25;101836.75;;;12.72;66.65
4972;BME280;2501;51.214;6.768;2023-05-20T05:46:54;101827.97;;;12.72;66.84
4972;BME280;2501;51.214;6.768;2023-05-20T05:49:22;101827.38;;;12.93;66.25
4972;BME280;2501;51.214;6.768;2023-05-20T05:51:51;101826.50;;;12.92;66.70
4972;BME280;2501;51.214;6.768;2023-05-20T05:54:22;101821.06;;;12.81;66.12
4972;BME280;2501;51.214;6.768;2023-05-20T05:56:50;101822.03;;;12.88;66.63
4972;BME280;2501;51.214;6.768;2023-05-20T05:59:21;101825.78;;;13.05;66.21
4972;BME280;2501;51.214;6.768;2023-05-20T06:01:49;101818.88;;;13.13;65.83
4972;BME280;2501;51.214;6.768;2023-05-20T06:04:18;101826.94;;;13.26;65.50
4972;BME280;2501;51.214;6.768;2023-05-20T06:06:46;101822.72;;;13.41;64.96
4972;BME280;2501;51.214;6.768;2023-05-20T06:09:15;101819.81;;;13.15;65.80
4972;BME280;2501;51.214;6.768;2023-05-20T06:11:46;101823.59;;;13.39;65.52
4972;BME280;2501;51.214;6.768;2023-05-20T06:14:14;101830.63;;;13.40;65.03
4972;BME280;2501;51.214;6.768;2023-05-20T06:16:43;101819.22;;;13.41;65.36
4972;BME280;2501;51.214;6.768;2023-05-20T06:19:11;101824.66;;;13.57;65.14
4972;BME280;2501;51.214;6.768;2023-05-20T06:21:40;101820.28;;;13.58;64.81
4972;BME280;2501;51.214;6.768;2023-05-20T06:24:08;101816.91;;;13.71;64.67
4972;BME280;2501;51.214;6.768;2023-05-20T06:26:36;101817.84;;;13.76;64.19
4972;BME280;2501;51.214;6.768;2023-05-20T06:29:07;101816.84;;;13.65;64.03
4972;BME280;2501;51.214;6.768;2023-05-20T06:31:36;101808.16;;;13.75;64.32
4972;BME280;2501;51.214;6.768;2023-05-20T06:34:04;101808.47;;;14.09;63.44
4972;BME280;2501;51.214;6.768;2023-05-20T06:36:33;101810.59;;;14.58;61.92
4972;BME280;2501;51.214;6.768;2023-05-20T06:39:01;101807.94;;;14.49;62.01
4972;BME280;2501;51.214;6.768;2023-05-20T06:41:30;101806.03;;;14.33;61.55
4972;BME280;2501;51.214;6.768;2023-05-20T06:43:59;101797.47;;;14.68;60.98
4972;BME280;2501;51.214;6.768;2023-05-20T06:46:30;101794.75;;;14.57;61.13
4972;BME280;2501;51.214;6.768;2023-05-20T06:48:58;101800.03;;;14.52;61.15
4972;BME280;2501;51.214;6.768;2023-05-20T06:51:27;101796.28;;;14.27;61.95
4972;BME280;2501;51.214;6.768;2023-05-20T06:53:55;101788.50;;;14.43;62.11
4972;BME280;2501;51.214;6.768;2023-05-20T06:56:24;101781.63;;;14.72;61.44
4972;BME280;2501;51.214;6.768;2023-05-20T06:58:54;101779.66;;;14.36;62.26
4972;BME280;2501;51.214;6.768;2023-05-20T07:01:22;101782.59;;;14.82;61.41
4972;BME280;2501;51.214;6.768;2023-05-20T07:03:53;101794.94;;;14.92;60.64
4972;BME280;2501;51.214;6.768;2023-05-20T07:06:21;101788.59;;;14.52;61.84
4972;BME280;2501;51.214;6.768;2023-05-20T07:08:53;101793.09;;;14.74;61.46
4972;BME280;2501;51.214;6.768;2023-05-20T07:11:22;101786.03;;;14.66;61.10
4972;BME280;2501;51.214;6.768;2023-05-20T07:13:50;101780.78;;;14.70;61.43
4972;BME280;2501;51.214;6.768;2023-05-20T07:16:18;101785.19;;;14.76;61.68
4972;BME280;2501;51.214;6.768;2023-05-20T07:18:47;101785.13;;;14.62;61.89
4972;BME280;2501;51.214;6.768;2023-05-20T07:21:18;101786.59;;;14.23;62.99
4972;BME280;2501;51.214;6.768;2023-05-20T07:23:46;101797.41;;;14.58;62.11
4972;BME280;2501;51.214;6.768;2023-05-20T07:26:15;101787.00;;;14.86;61.19
4972;BME280;2501;51.214;6.768;2023-05-20T07:28:43;101782.72;;;15.15;60.30
4972;BME280;2501;51.214;6.768;2023-05-20T07:31:12;101778.28;;;15.11;59.67
4972;BME280;2501;51.214;6.768;2023-05-20T07:33:41;101778.22;;;14.88;60.49
4972;BME280;2501;51.214;6.768;2023-05-20T07:36:09;101776.38;;;14.74;60.19
4972;BME280;2501;51.214;6.768;2023-05-20T07:38:40;101773.00;;;15.04;60.88
4972;BME280;2501;51.214;6.768;2023-05-20T07:41:09;101774.63;;;14.77;60.83
4972;BME280;2501;51.214;6.768;2023-05-20T07:43:37;101760.72;;;15.24;60.44
4972;BME280;2501;51.214;6.768;2023-05-20T07:46:06;101761.56;;;15.05;60.22
4972;BME280;2501;51.214;6.768;2023-05-20T07:48:34;101760.72;;;15.22;60.80
4972;BME280;2501;51.214;6.768;2023-05-20T07:51:03;101764.19;;;15.09;61.18
4972;BME280;2501;51.214;6.768;2023-05-20T07:53:31;101772.13;;;15.11;59.96
4972;BME280;2501;51.214;6.768;2023-05-20T07:56:03;101773.09;;;15.43;60.58
4972;BME280;2501;51.214;6.768;2023-05-20T07:58:32;101768.69;;;15.35;59.69
4972;BME280;2501;51.214;6.768;2023-05-20T08:01:00;101773.09;;;15.32;60.43
4972;BME280;2501;51.214;6.768;2023-05-20T08:03:28;101766.88;;;15.15;59.94
4972;BME280;2501;51.214;6.768;2023-05-20T08:05:57;101771.41;;;15.56;59.66
4972;BME280;2501;51.214;6.768;2023-05-20T08:08:25;101772.22;;;15.44;59.19
4972;BME280;2501;51.214;6.768;2023-05-20T08:10:55;101774.03;;;15.54;59.66
4972;BME280;2501;51.214;6.768;2023-05-20T08:13:26;101775.81;;;15.63;59.08
4972;BME280;2501;51.214;6.768;2023-05-20T08:15:54;101770.50;;;15.54;59.57
4972;BME280;2501;51.214;6.768;2023-05-20T08:18:23;101765.94;;;15.07;60.63
4972;BME280;2501;51.214;6.768;2023-05-20T08:20:52;101775.72;;;15.32;60.42
4972;BME280;2501;51.214;6.768;2023-05-20T08:23:20;101772.22;;;15.47;60.60
4972;BME280;2501;51.214;6.768;2023-05-20T08:25:48;101768.69;;;15.42;60.88
4972;BME280;2501;51.214;6.768;2023-05-20T08:28:17;101761.75;;;15.91;59.16
4972;BME280;2501;51.214;6.768;2023-05-20T08:30:49;101774.91;;;15.55;60.21
4972;BME280;2501;51.214;6.768;2023-05-20T08:33:17;101761.72;;;16.02;59.18
4972;BME280;2501;51.214;6.768;2023-05-20T08:35:46;101758.19;;;16.18;58.77
4972;BME280;2501;51.214;6.768;2023-05-20T08:38:15;101761.72;;;16.00;58.58
4972;BME280;2501;51.214;6.768;2023-05-20T08:40:44;101750.28;;;16.05;58.90
4972;BME280;2501;51.214;6.768;2023-05-20T08:43:12;101756.41;;;16.14;58.53
4972;BME280;2501;51.214;6.768;2023-05-20T08:45:42;101763.50;;;15.82;60.30
4972;BME280;2501;51.214;6.768;2023-05-20T08:48:14;101761.69;;;16.31;58.25
4972;BME280;2501;51.214;6.768;2023-05-20T08:50:44;101759.09;;;15.99;58.62
4972;BME280;2501;51.214;6.768;2023-05-20T08:53:15;101753.72;;;16.48;58.35
4972;BME280;2501;51.214;6.768;2023-05-20T08:55:52;101754.69;;;16.04;58.68
4972;BME280;2501;51.214;6.768;2023-05-20T08:58:22;101761.69;;;16.28;58.01
4972;BME280;2501;51.214;6.768;2023-05-20T09:00:52;101756.41;;;15.61;59.40
4972;BME280;2501;51.214;6.768;2023-05-20T09:03:23;101755.53;;;16.23;59.37
4972;BME280;2501;51.214;6.768;2023-05-20T09:05:52;101748.41;;;16.61;57.65
4972;BME280;2501;51.214;6.768;2023-05-20T09:08:23;101758.22;;;15.88;58.54
4972;BME280;2501;51.214;6.768;2023-05-20T09:10:53;101755.47;;;16.49;57.75
4972;BME280;2501;51.214;6.768;2023-05-20T09:13:23;101751.03;;;16.78;56.76
4972;BME280;2501;51.214;6.768;2023-05-20T09:15:51;101759.06;;;16.20;58.02
4972;BME280;2501;51.214;6.768;2023-05-20T09:18:22;101752.00;;;16.16;58.74
4972;BME280;2501;51.214;6.768;2023-05-20T09:20:51;101759.75;;;16.98;57.56
4972;BME280;2501;51.214;6.768;2023-05-20T09:23:20;101744.03;;;16.36;57.60
4972;BME280;2501;51.214;6.768;2023-05-20T09:25:50;101751.03;;;16.75;57.30
4972;BME280;2501;51.214;6.768;2023-05-20T09:28:21;101751.94;;;16.45;57.90
4972;BME280;2501;51.214;6.768;2023-05-20T09:30:56;101745.84;;;15.97;59.45
4972;BME280;2501;51.214;6.768;2023-05-20T09:33:29;101742.28;;;16.32;58.71
4972;BME280;2501;51.214;6.768;2023-05-20T09:36:02;101748.47;;;16.39;59.23
4972;BME280;2501;51.214;6.768;2023-05-20T09:38:33;101759.91;;;16.47;58.70
4972;BME280;2501;51.214;6.768;2023-05-20T09:41:05;101754.59;;;16.57;57.63
4972;BME280;2501;51.214;6.768;2023-05-20T09:43:35;101751.94;;;16.45;58.04
4972;BME280;2501;51.214;6.768;2023-05-20T09:46:03;101752.81;;;16.59;58.34
4972;BME280;2501;51.214;6.768;2023-05-20T09:48:35;101751.06;;;16.61;57.49
4972;BME280;2501;51.214;6.768;2023-05-20T09:51:04;101746.56;;;16.82;58.49
4972;BME280;2501;51.214;6.768;2023-05-20T09:53:33;101743.81;;;17.12;56.86
4972;BME280;2501;51.214;6.768;2023-05-20T09:56:02;101740.41;;;16.80;57.30
4972;BME280;2501;51.214;6.768;2023-05-20T09:58:33;101748.25;;;17.02;57.21
4972;BME280;2501;51.214;6.768;2023-05-20T10:01:02;101744.72;;;16.99;57.48
4972;BME280;2501;51.214;6.768;2023-05-20T10:03:31;101741.06;;;17.26;56.50
4972;BME280;2501;51.214;6.768;2023-05-20T10:06:32;101741.97;;;17.19;56.94
4972;BME280;2501;51.214;6.768;2023-05-20T10:09:21;101729.69;;;17.10;56.34
4972;BME280;2501;51.214;6.768;2023-05-20T10:11:58;101737.81;;;16.51;58.16
4972;BME280;2501;51.214;6.768;2023-05-20T10:14:42;101732.44;;;16.83;58.09
4972;BME280;2501;51.214;6.768;2023-05-20T10:17:22;101737.00;;;16.15;58.96
4972;BME280;2501;51.214;6.768;2023-05-20T10:19:57;101721.75;;;17.02;57.53
4972;BME280;2501;51.214;6.768;2023-05-20T10:22:29;101741.31;;;16.79;58.54
4972;BME280;2501;51.214;6.768;2023-05-20T10:24:58;101725.47;;;16.54;58.50
4972;BME280;2501;51.214;6.768;2023-05-20T10:27:27;101725.94;;;17.43;56.51
4972;BME280;2501;51.214;6.768;2023-05-20T10:29:56;101712.59;;;17.49;56.56
4972;BME280;2501;51.214;6.768;2023-05-20T10:32:25;101726.91;;;17.31;56.47
4972;BME280;2501;51.214;6.768;2023-05-20T10:34:59;101731.00;;;17.81;53.74
4972;BME280;2501;51.214;6.768;2023-05-20T10:37:33;101734.78;;;17.39;56.05
4972;BME280;2501;51.214;6.768;2023-05-20T10:40:06;101736.03;;;16.65;57.07
4972;BME280;2501;51.214;6.768;2023-05-20T10:42:35;101729.69;;;17.02;57.62
4972;BME280;2501;51.214;6.768;2023-05-20T10:45:05;101744.72;;;17.02;57.79
4972;BME280;2501;51.214;6.768;2023-05-20T10:47:34;101748.13;;;17.31;57.06
4972;BME280;2501;51.214;6.768;2023-05-20T10:50:03;101726.91;;;17.28;56.18
4972;BME280;2501;51.214;6.768;2023-05-20T10:52:35;101735.53;;;17.58;56.46
4972;BME280;2501;51.214;6.768;2023-05-20T10:55:06;101733.22;;;17.04;56.81
4972;BME280;2501;51.214;6.768;2023-05-20T10:57:34;101731.38;;;17.22;56.73
4972;BME280;2501;51.214;6.768;2023-05-20T11:00:04;101732.91;;;17.56;56.27
4972;BME280;2501;51.214;6.768;2023-05-20T11:02:35;101732.13;;;17.42;56.95
4972;BME280;2501;51.214;6.768;2023-05-20T11:05:04;101728.97;;;16.70;57.46
4972;BME280;2501;51.214;6.768;2023-05-20T11:07:36;101731.34;;;17.26;57.10
4972;BME280;2501;51.214;6.768;2023-05-20T11:10:08;101723.31;;;17.34;56.53
4972;BME280;2501;51.214;6.768;2023-05-20T11:12:36;101727.13;;;16.93;57.65
4972;BME280;2501;51.214;6.768;2023-05-20T11:15:06;101730.28;;;17.53;56.41
4972;BME280;2501;51.214;6.768;2023-05-20T11:17:34;101729.66;;;17.13;56.04
4972;BME280;2501;51.214;6.768;2023-05-20T11:20:03;101725.03;;;17.44;56.91
4972;BME280;2501;51.214;6.768;2023-05-20T11:22:35;101736.09;;;16.42;59.89
4972;BME280;2501;51.214;6.768;2023-05-20T11:25:04;101726.31;;;16.75;58.69
4972;BME280;2501;51.214;6.768;2023-05-20T11:27:33;101721.31;;;17.72;57.11
4972;BME280;2501;51.214;6.768;2023-05-20T11:30:05;101725.94;;;17.42;57.19
4972;BME280;2501;51.214;6.768;2023-05-20T11:32:35;101711.13;;;17.10;57.51
4972;BME280;2501;51.214;6.768;2023-05-20T11:35:05;101714.47;;;17.35;57.27
4972;BME280;2501;51.214;6.768;2023-05-20T11:37:37;101712.72;;;17.32;56.52
4972;BME280;2501;51.214;6.768;2023-05-20T11:40:07;101705.19;;;17.98;56.20
4972;BME280;2501;51.214;6.768;2023-05-20T11:42:37;101709.16;;;18.40;54.78
4972;BME280;2501;51.214;6.768;2023-05-20T11:45:12;101694.59;;;17.94;54.79
4972;BME280;2501;51.214;6.768;2023-05-20T11:47:40;101692.91;;;18.69;53.41
4972;BME280;2501;51.214;6.768;2023-05-20T11:50:10;101685.13;;;18.53;53.64
4972;BME280;2501;51.214;6.768;2023-05-20T11:52:55;101680.31;;;18.84;53.75
4972;BME280;2501;51.214;6.768;2023-05-20T11:55:24;101670.34;;;18.27;54.60
4972;BME280;2501;51.214;6.768;2023-05-20T11:57:53;101669.63;;;18.15;54.55
4972;BME280;2501;51.214;6.768;2023-05-20T12:00:22;101675.03;;;18.02;55.46
4972;BME280;2501;51.214;6.768;2023-05-20T12:02:51;101667.03;;;18.05;55.10
4972;BME280;2501;51.214;6.768;2023-05-20T12:05:20;101671.06;;;18.43;54.14
4972;BME280;2501;51.214;6.768;2023-05-20T12:07:51;101652.50;;;18.38;55.30
4972;BME280;2501;51.214;6.768;2023-05-20T12:10:19;101650.75;;;18.36;55.18
4972;BME280;2501;51.214;6.768;2023-05-20T12:12:48;101646.81;;;17.95;55.94
4972;BME280;2501;51.214;6.768;2023-05-20T12:15:16;101651.81;;;18.21;55.76
4972;BME280;2501;51.214;6.768;2023-05-20T12:17:47;101635.50;;;18.53;55.08
4972;BME280;2501;51.214;6.768;2023-05-20T12:20:18;101650.66;;;18.45;54.75
4972;BME280;2501;51.214;6.768;2023-05-20T12:22:47;101644.31;;;18.57;54.76
4972;BME280;2501;51.214;6.768;2023-05-20T12:25:19;101643.88;;;18.92;53.18
4972;BME280;2501;51.214;6.768;2023-05-20T12:27:48;101638.25;;;19.11;53.31
4972;BME280;2501;51.214;6.768;2023-05-20T12:30:18;101638.97;;;18.61;54.36
4972;BME280;2501;51.214;6.768;2023-05-20T12:32:48;101640.94;;;19.10;53.17
4972;BME280;2501;51.214;6.768;2023-05-20T12:35:23;101635.91;;;19.50;52.24
4972;BME280;2501;51.214;6.768;2023-05-20T12:37:52;101636.22;;;19.81;52.13
4972;BME280;2501;51.214;6.768;2023-05-20T12:40:24;101633.38;;;19.39;53.21
4972;BME280;2501;51.214;6.768;2023-05-20T12:42:53;101624.84;;;20.21;50.96
4972;BME280;2501;51.214;6.768;2023-05-20T12:45:22;101616.44;;;19.96;50.60
4972;BME280;2501;51.214;6.768;2023-05-20T12:47:50;101616.41;;;19.97;51.33
4972;BME280;2501;51.214;6.768;2023-05-20T12:50:19;101623.47;;;18.94;54.63
4972;BME280;2501;51.214;6.768;2023-05-20T12:52:48;101612.47;;;19.70;52.76
4972;BME280;2501;51.214;6.768;2023-05-20T12:55:16;101611.69;;;20.11;51.60
4972;BME280;2501;51.214;6.768;2023-05-20T12:57:47;101608.22;;;20.51;49.12
4972;BME280;2501;51.214;6.768;2023-05-20T13:00:17;101610.31;;;20.37;50.88
4972;BME280;2501;51.214;6.768;2023-05-20T13:02:45;101614.91;;;19.83;50.46
4972;BME280;2501;51.214;6.768;2023-05-20T13:05:14;101605.78;;;19.96;51.71
4972;BME280;2501;51.214;6.768;2023-05-20T13:07:42;101608.91;;;19.73;50.91
4972;BME280;2501;51.214;6.768;2023-05-20T13:10:11;101612.03;;;19.42;52.07
4972;BME280;2501;51.214;6.768;2023-05-20T13:12:39;101597.09;;;20.31;50.05
4972;BME280;2501;51.214;6.768;2023-05-20T13:15:13;101592.44;;;19.97;50.70
4972;BME280;2501;51.214;6.768;2023-05-20T13:17:42;101580.84;;;19.55;51.45
4972;BME280;2501;51.214;6.768;2023-05-20T13:20:11;101583.81;;;20.28;50.24
4972;BME280;2501;51.214;6.768;2023-05-20T13:22:41;101584.91;;;20.61;49.18